This is the latest recevied weather packets stored in our database for station/object KP4FJC. If no packets are shown the sender has not sent any weather packets the latest 10 day(s).
| Time | Temp. | Humidity | Pressure | Rain* | Wind** | Luminosity | Snow |
|---|---|---|---|---|---|---|---|
| 1777906146 | 30.56° C | 63% | 1017.9 hPa | 0 mm | - | 981 W/m² | - |
| 1777905843 | 30° C | 67% | 1017.9 hPa | 0 mm | - | 924 W/m² | - |
| 1777905539 | 30.56° C | 67% | 1017.9 hPa | 0 mm | - | 860 W/m² | - |
| 1777905236 | 29.44° C | 69% | 1017.8 hPa | 0 mm | - | 845 W/m² | - |
| 1777904934 | 30° C | 68% | 1017.9 hPa | 0 mm | - | 872 W/m² | - |
| 1777904630 | 30° C | 68% | 1017.9 hPa | 0 mm | - | 848 W/m² | - |
| 1777904328 | 29.44° C | 69% | 1017.9 hPa | 0 mm | - | 172 W/m² | - |
| 1777904025 | 30° C | 70% | 1017.9 hPa | 0 mm | - | 238 W/m² | - |
| 1777903721 | 30° C | 68% | 1018 hPa | 0 mm | - | 190 W/m² | - |
| 1777903417 | 30° C | 68% | 1018.1 hPa | 0 mm | - | 770 W/m² | - |
| 1777903114 | 30° C | 68% | 1018 hPa | 0 mm | - | 789 W/m² | - |
| 1777902810 | 30° C | 70% | 1018.1 hPa | 0 mm | - | 334 W/m² | - |
| 1777902508 | 30° C | 68% | 1018.1 hPa | 0 mm | - | 599 W/m² | - |
| 1777902205 | 30° C | 68% | 1018 hPa | 0 mm | - | 876 W/m² | - |
| 1777901903 | 30° C | 69% | 1018.2 hPa | 0 mm | - | 766 W/m² | - |
| 1777901600 | 29.44° C | 70% | 1018.2 hPa | 0 mm | - | 707 W/m² | - |
| 1777901297 | 29.44° C | 71% | 1018.1 hPa | 0 mm | - | 687 W/m² | - |
| 1777900996 | 29.44° C | 70% | 1018.2 hPa | 0 mm | - | 654 W/m² | - |
| 1777900693 | 29.44° C | 71% | 1018.1 hPa | 0 mm | - | 652 W/m² | - |
| 1777900389 | 28.89° C | 73% | 1018.4 hPa | 0 mm | - | 623 W/m² | - |
| 1777900086 | 28.33° C | 74% | 1018.3 hPa | 0 mm | - | 586 W/m² | - |
| 1777899782 | 28.89° C | 74% | 1018.1 hPa | 0 mm | - | 587 W/m² | - |
| 1777899479 | 28.89° C | 75% | 1018.2 hPa | 0 mm | - | 546 W/m² | - |
| 1777899177 | 28.33° C | 75% | 1018.4 hPa | 0 mm | - | 514 W/m² | - |
| 1777898875 | 28.89° C | 74% | 1018.3 hPa | 0 mm | - | 484 W/m² | - |
* Rain latest hour (hover to see other rain measurements)
** Current wind speed in m/s (hover to see current wind gust speed)